Terminal Aerodrome Forecast
Issued by NWS

Home | Current Version | Previous Version | Graphics & Text | Print | Product List | Glossary On
Versions: 1 2 3 4 5 6 7 8 9 10 11 12 13 14 15 16 17 18
000
FTUS43 KFGF 282320
TAFBJI
TAF
KBJI 282320Z 2900/2924 32012G18KT P6SM SCT050
     FM290200 32009KT P6SM SKC
     FM291800 32010G16KT P6SM SCT250
     FM292000 32010G17KT P6SM VCTS BKN050CB=

USA.gov is the U.S. government's official web portal to all federal, state and local government web resources and services.